sensor_id;sensor_type;location;lat;lon;timestamp;pressure;altitude;pressure_sealevel;temperature;humidity
28167;BME280;15455;53.376;-6.262;2023-04-23T00:00:45;99962.44;;;5.64;100.00
28167;BME280;15455;53.376;-6.262;2023-04-23T00:03:33;99960.75;;;5.68;100.00
28167;BME280;15455;53.376;-6.262;2023-04-23T00:06:20;99958.16;;;5.71;100.00
28167;BME280;15455;53.376;-6.262;2023-04-23T00:09:06;99965.09;;;5.75;100.00
28167;BME280;15455;53.376;-6.262;2023-04-23T00:11:53;99959.94;;;5.80;100.00
28167;BME280;15455;53.376;-6.262;2023-04-23T00:14:39;99959.09;;;5.84;100.00
28167;BME280;15455;53.376;-6.262;2023-04-23T00:17:25;99963.44;;;5.91;100.00
28167;BME280;15455;53.376;-6.262;2023-04-23T00:20:10;99960.84;;;5.91;100.00
28167;BME280;15455;53.376;-6.262;2023-04-23T00:22:56;99963.44;;;5.91;100.00
28167;BME280;15455;53.376;-6.262;2023-04-23T00:25:41;99969.47;;;5.90;100.00
28167;BME280;15455;53.376;-6.262;2023-04-23T00:28:26;99959.97;;;5.89;100.00
28167;BME280;15455;53.376;-6.262;2023-04-23T00:31:12;99966.03;;;5.91;100.00
28167;BME280;15455;53.376;-6.262;2023-04-23T00:33:58;99965.16;;;5.94;100.00
28167;BME280;15455;53.376;-6.262;2023-04-23T00:36:43;99972.97;;;5.97;100.00
28167;BME280;15455;53.376;-6.262;2023-04-23T00:39:29;99965.22;;;6.00;100.00
28167;BME280;15455;53.376;-6.262;2023-04-23T00:42:14;99964.38;;;6.02;100.00
28167;BME280;15455;53.376;-6.262;2023-04-23T00:45:01;99964.38;;;6.07;100.00
28167;BME280;15455;53.376;-6.262;2023-04-23T00:47:47;99958.31;;;6.06;100.00
28167;BME280;15455;53.376;-6.262;2023-04-23T00:50:33;99958.31;;;6.05;100.00
28167;BME280;15455;53.376;-6.262;2023-04-23T00:53:19;99953.13;;;6.00;100.00
28167;BME280;15455;53.376;-6.262;2023-04-23T00:56:05;99960.00;;;5.95;100.00
28167;BME280;15455;53.376;-6.262;2023-04-23T00:58:51;99959.13;;;5.91;100.00
28167;BME280;15455;53.376;-6.262;2023-04-23T01:01:36;99959.09;;;5.88;100.00
28167;BME280;15455;53.376;-6.262;2023-04-23T01:04:23;99955.66;;;5.89;100.00
28167;BME280;15455;53.376;-6.262;2023-04-23T01:07:11;99961.69;;;5.91;100.00
28167;BME280;15455;53.376;-6.262;2023-04-23T01:09:57;99960.84;;;5.93;100.00
28167;BME280;15455;53.376;-6.262;2023-04-23T01:12:43;99959.97;;;5.92;100.00
28167;BME280;15455;53.376;-6.262;2023-04-23T01:15:28;99961.69;;;5.88;100.00
28167;BME280;15455;53.376;-6.262;2023-04-23T01:18:14;99964.28;;;5.87;100.00
28167;BME280;15455;53.376;-6.262;2023-04-23T01:20:59;99959.94;;;5.83;100.00
28167;BME280;15455;53.376;-6.262;2023-04-23T01:23:45;99960.78;;;5.80;100.00
28167;BME280;15455;53.376;-6.262;2023-04-23T01:26:31;99964.22;;;5.78;100.00
28167;BME280;15455;53.376;-6.262;2023-04-23T01:29:18;99965.09;;;5.78;100.00
28167;BME280;15455;53.376;-6.262;2023-04-23T01:32:04;99956.44;;;5.74;100.00
28167;BME280;15455;53.376;-6.262;2023-04-23T01:34:51;99962.50;;;5.73;100.00
28167;BME280;15455;53.376;-6.262;2023-04-23T01:37:38;99955.59;;;5.74;100.00
28167;BME280;15455;53.376;-6.262;2023-04-23T01:40:25;99964.22;;;5.76;100.00
28167;BME280;15455;53.376;-6.262;2023-04-23T01:43:10;99963.34;;;5.74;100.00
28167;BME280;15455;53.376;-6.262;2023-04-23T01:45:56;99962.50;;;5.75;100.00
28167;BME280;15455;53.376;-6.262;2023-04-23T01:48:42;99959.03;;;5.78;100.00
28167;BME280;15455;53.376;-6.262;2023-04-23T01:51:29;99955.59;;;5.74;100.00
28167;BME280;15455;53.376;-6.262;2023-04-23T01:54:14;99953.00;;;5.72;100.00
28167;BME280;15455;53.376;-6.262;2023-04-23T01:57:00;99954.72;;;5.72;100.00
28167;BME280;15455;53.376;-6.262;2023-04-23T01:59:46;99948.66;;;5.70;100.00
28167;BME280;15455;53.376;-6.262;2023-04-23T02:02:33;99958.16;;;5.66;100.00
28167;BME280;15455;53.376;-6.262;2023-04-23T02:05:19;99953.84;;;5.65;100.00
28167;BME280;15455;53.376;-6.262;2023-04-23T02:08:05;99953.84;;;5.65;100.00
28167;BME280;15455;53.376;-6.262;2023-04-23T02:10:52;99953.81;;;5.62;100.00
28167;BME280;15455;53.376;-6.262;2023-04-23T02:13:37;99953.81;;;5.62;100.00
28167;BME280;15455;53.376;-6.262;2023-04-23T02:16:22;99951.22;;;5.59;100.00
28167;BME280;15455;53.376;-6.262;2023-04-23T02:19:09;99956.38;;;5.57;100.00
28167;BME280;15455;53.376;-6.262;2023-04-23T02:21:56;99957.22;;;5.55;100.00
28167;BME280;15455;53.376;-6.262;2023-04-23T02:24:42;99954.59;;;5.49;100.00
28167;BME280;15455;53.376;-6.262;2023-04-23T02:27:28;99958.91;;;5.48;100.00
28167;BME280;15455;53.376;-6.262;2023-04-23T02:30:14;99958.91;;;5.48;100.00
28167;BME280;15455;53.376;-6.262;2023-04-23T02:32:59;99965.81;;;5.48;100.00
28167;BME280;15455;53.376;-6.262;2023-04-23T02:35:45;99964.91;;;5.43;100.00
28167;BME280;15455;53.376;-6.262;2023-04-23T02:38:31;99955.41;;;5.40;100.00
28167;BME280;15455;53.376;-6.262;2023-04-23T02:41:16;99954.53;;;5.38;100.00
28167;BME280;15455;53.376;-6.262;2023-04-23T02:44:01;99951.94;;;5.35;100.00
28167;BME280;15455;53.376;-6.262;2023-04-23T02:46:47;99951.06;;;5.33;100.00
28167;BME280;15455;53.376;-6.262;2023-04-23T02:49:33;99956.22;;;5.33;100.00
28167;BME280;15455;53.376;-6.262;2023-04-23T02:52:18;99952.78;;;5.29;100.00
28167;BME280;15455;53.376;-6.262;2023-04-23T02:55:05;99947.59;;;5.28;100.00
28167;BME280;15455;53.376;-6.262;2023-04-23T02:57:51;99956.19;;;5.25;100.00
28167;BME280;15455;53.376;-6.262;2023-04-23T03:00:37;99952.75;;;5.26;100.00
28167;BME280;15455;53.376;-6.262;2023-04-23T03:03:23;99950.16;;;5.25;100.00
28167;BME280;15455;53.376;-6.262;2023-04-23T03:06:11;99954.44;;;5.26;100.00
28167;BME280;15455;53.376;-6.262;2023-04-23T03:08:56;99955.34;;;5.26;100.00
28167;BME280;15455;53.376;-6.262;2023-04-23T03:11:42;99958.78;;;5.27;100.00
28167;BME280;15455;53.376;-6.262;2023-04-23T03:14:30;99950.16;;;5.26;100.00
28167;BME280;15455;53.376;-6.262;2023-04-23T03:17:16;99951.88;;;5.24;100.00
28167;BME280;15455;53.376;-6.262;2023-04-23T03:20:02;99951.00;;;5.22;100.00
28167;BME280;15455;53.376;-6.262;2023-04-23T03:22:48;99953.56;;;5.19;100.00
28167;BME280;15455;53.376;-6.262;2023-04-23T03:25:33;99950.97;;;5.16;100.00
28167;BME280;15455;53.376;-6.262;2023-04-23T03:28:19;99955.22;;;5.09;100.00
28167;BME280;15455;53.376;-6.262;2023-04-23T03:31:04;99957.78;;;5.06;100.00
28167;BME280;15455;53.376;-6.262;2023-04-23T03:33:50;99956.91;;;5.04;100.00
28167;BME280;15455;53.376;-6.262;2023-04-23T03:36:41;99959.47;;;5.04;100.00
28167;BME280;15455;53.376;-6.262;2023-04-23T03:39:28;99959.47;;;5.04;100.00
28167;BME280;15455;53.376;-6.262;2023-04-23T03:42:14;99956.06;;;5.05;100.00
28167;BME280;15455;53.376;-6.262;2023-04-23T03:45:01;99961.22;;;5.07;100.00
28167;BME280;15455;53.376;-6.262;2023-04-23T03:47:46;99961.22;;;5.07;100.00
28167;BME280;15455;53.376;-6.262;2023-04-23T03:50:31;99967.28;;;5.06;100.00
28167;BME280;15455;53.376;-6.262;2023-04-23T03:53:29;99969.88;;;5.09;100.00
28167;BME280;15455;53.376;-6.262;2023-04-23T03:56:35;99970.75;;;5.11;100.00
28167;BME280;15455;53.376;-6.262;2023-04-23T03:59:41;99963.00;;;5.15;100.00
28167;BME280;15455;53.376;-6.262;2023-04-23T04:02:26;99969.09;;;5.17;100.00
28167;BME280;15455;53.376;-6.262;2023-04-23T04:05:12;99971.66;;;5.17;100.00
28167;BME280;15455;53.376;-6.262;2023-04-23T04:07:58;99966.50;;;5.20;100.00
28167;BME280;15455;53.376;-6.262;2023-04-23T04:10:43;99970.84;;;5.23;100.00
28167;BME280;15455;53.376;-6.262;2023-04-23T04:13:28;99962.22;;;5.26;100.00
28167;BME280;15455;53.376;-6.262;2023-04-23T04:16:14;99966.53;;;5.27;100.00
28167;BME280;15455;53.376;-6.262;2023-04-23T04:18:59;99965.72;;;5.29;100.00
28167;BME280;15455;53.376;-6.262;2023-04-23T04:21:45;99962.28;;;5.33;100.00
28167;BME280;15455;53.376;-6.262;2023-04-23T04:24:31;99966.63;;;5.36;100.00
28167;BME280;15455;53.376;-6.262;2023-04-23T04:27:17;99966.63;;;5.39;100.00
28167;BME280;15455;53.376;-6.262;2023-04-23T04:30:02;99968.38;;;5.43;100.00
28167;BME280;15455;53.376;-6.262;2023-04-23T04:32:49;99961.47;;;5.44;100.00
28167;BME280;15455;53.376;-6.262;2023-04-23T04:35:35;99958.91;;;5.44;100.00
28167;BME280;15455;53.376;-6.262;2023-04-23T04:38:21;99961.47;;;5.42;100.00
28167;BME280;15455;53.376;-6.262;2023-04-23T04:41:06;99962.31;;;5.39;100.00
28167;BME280;15455;53.376;-6.262;2023-04-23T04:43:52;99969.16;;;5.34;100.00
28167;BME280;15455;53.376;-6.262;2023-04-23T04:46:39;99970.06;;;5.35;100.00
28167;BME280;15455;53.376;-6.262;2023-04-23T04:49:27;99972.66;;;5.35;100.00
28167;BME280;15455;53.376;-6.262;2023-04-23T04:52:12;99973.50;;;5.37;100.00
28167;BME280;15455;53.376;-6.262;2023-04-23T04:54:57;99983.00;;;5.38;100.00
28167;BME280;15455;53.376;-6.262;2023-04-23T04:57:43;99976.09;;;5.38;100.00
28167;BME280;15455;53.376;-6.262;2023-04-23T05:00:29;99977.00;;;5.39;100.00
28167;BME280;15455;53.376;-6.262;2023-04-23T05:03:14;99977.84;;;5.43;100.00
28167;BME280;15455;53.376;-6.262;2023-04-23T05:06:00;99977.88;;;5.44;100.00
28167;BME280;15455;53.376;-6.262;2023-04-23T05:08:46;99976.16;;;5.46;100.00
28167;BME280;15455;53.376;-6.262;2023-04-23T05:11:34;99977.88;;;5.49;100.00
28167;BME280;15455;53.376;-6.262;2023-04-23T05:14:20;99971.84;;;5.48;100.00
28167;BME280;15455;53.376;-6.262;2023-04-23T05:17:05;99983.97;;;5.52;100.00
28167;BME280;15455;53.376;-6.262;2023-04-23T05:19:51;99981.38;;;5.52;100.00
28167;BME280;15455;53.376;-6.262;2023-04-23T05:22:40;99987.41;;;5.53;100.00
28167;BME280;15455;53.376;-6.262;2023-04-23T05:25:26;99991.72;;;5.51;100.00
28167;BME280;15455;53.376;-6.262;2023-04-23T05:28:12;99990.84;;;5.50;100.00
28167;BME280;15455;53.376;-6.262;2023-04-23T05:30:57;99994.28;;;5.49;100.00
28167;BME280;15455;53.376;-6.262;2023-04-23T05:33:43;99998.59;;;5.49;100.00
28167;BME280;15455;53.376;-6.262;2023-04-23T05:36:34;100000.31;;;5.50;100.00
28167;BME280;15455;53.376;-6.262;2023-04-23T05:39:20;100002.06;;;5.49;100.00
28167;BME280;15455;53.376;-6.262;2023-04-23T05:42:06;100002.91;;;5.48;100.00
28167;BME280;15455;53.376;-6.262;2023-04-23T05:44:51;100008.09;;;5.48;100.00
28167;BME280;15455;53.376;-6.262;2023-04-23T05:47:37;100008.94;;;5.49;100.00
28167;BME280;15455;53.376;-6.262;2023-04-23T05:50:22;100010.69;;;5.50;100.00
28167;BME280;15455;53.376;-6.262;2023-04-23T05:53:08;100005.50;;;5.47;100.00
28167;BME280;15455;53.376;-6.262;2023-04-23T05:55:53;100003.75;;;5.44;100.00
28167;BME280;15455;53.376;-6.262;2023-04-23T05:58:38;100001.13;;;5.41;100.00
28167;BME280;15455;53.376;-6.262;2023-04-23T06:01:24;100001.97;;;5.37;100.00
28167;BME280;15455;53.376;-6.262;2023-04-23T06:04:09;99990.75;;;5.32;100.00
28167;BME280;15455;53.376;-6.262;2023-04-23T06:06:55;99997.59;;;5.27;100.00
28167;BME280;15455;53.376;-6.262;2023-04-23T06:09:40;100007.94;;;5.25;100.00
28167;BME280;15455;53.376;-6.262;2023-04-23T06:12:26;100010.53;;;5.30;100.00
28167;BME280;15455;53.376;-6.262;2023-04-23T06:15:11;100008.84;;;5.30;100.00
28167;BME280;15455;53.376;-6.262;2023-04-23T06:17:57;100014.88;;;5.32;100.00
28167;BME280;15455;53.376;-6.262;2023-04-23T06:20:43;100004.53;;;5.31;100.00
28167;BME280;15455;53.376;-6.262;2023-04-23T06:23:30;100005.38;;;5.30;100.00
28167;BME280;15455;53.376;-6.262;2023-04-23T06:26:16;100014.00;;;5.27;100.00
28167;BME280;15455;53.376;-6.262;2023-04-23T06:29:04;100018.31;;;5.30;100.00
28167;BME280;15455;53.376;-6.262;2023-04-23T06:31:55;100020.03;;;5.31;100.00
28167;BME280;15455;53.376;-6.262;2023-04-23T06:34:41;100022.66;;;5.34;100.00
28167;BME280;15455;53.376;-6.262;2023-04-23T06:37:44;100034.75;;;5.38;100.00
28167;BME280;15455;53.376;-6.262;2023-04-23T06:40:31;100034.78;;;5.41;100.00
28167;BME280;15455;53.376;-6.262;2023-04-23T06:43:16;100041.69;;;5.44;100.00
28167;BME280;15455;53.376;-6.262;2023-04-23T06:46:36;100043.47;;;5.49;100.00
28167;BME280;15455;53.376;-6.262;2023-04-23T06:49:22;100037.47;;;5.53;100.00
28167;BME280;15455;53.376;-6.262;2023-04-23T06:52:07;100044.41;;;5.59;100.00
28167;BME280;15455;53.376;-6.262;2023-04-23T06:54:53;100043.59;;;5.65;100.00
28167;BME280;15455;53.376;-6.262;2023-04-23T06:57:38;100047.13;;;5.81;100.00
28167;BME280;15455;53.376;-6.262;2023-04-23T07:00:24;100051.63;;;6.10;100.00
28167;BME280;15455;53.376;-6.262;2023-04-23T07:03:10;100055.16;;;6.35;100.00
28167;BME280;15455;53.376;-6.262;2023-04-23T07:05:56;100065.59;;;6.61;100.00
28167;BME280;15455;53.376;-6.262;2023-04-23T07:08:42;100054.44;;;6.82;100.00
28167;BME280;15455;53.376;-6.262;2023-04-23T07:11:29;100054.41;;;6.94;100.00
28167;BME280;15455;53.376;-6.262;2023-04-23T07:14:15;100055.31;;;7.04;100.00
28167;BME280;15455;53.376;-6.262;2023-04-23T07:17:01;100047.53;;;7.20;100.00
28167;BME280;15455;53.376;-6.262;2023-04-23T07:19:46;100051.84;;;7.30;100.00
28167;BME280;15455;53.376;-6.262;2023-04-23T07:22:32;100051.84;;;7.35;100.00
28167;BME280;15455;53.376;-6.262;2023-04-23T07:25:18;100046.66;;;7.27;100.00
28167;BME280;15455;53.376;-6.262;2023-04-23T07:28:03;100044.91;;;7.06;100.00
28167;BME280;15455;53.376;-6.262;2023-04-23T07:30:49;100043.19;;;6.95;100.00
28167;BME280;15455;53.376;-6.262;2023-04-23T07:33:34;100045.78;;;6.95;100.00
28167;BME280;15455;53.376;-6.262;2023-04-23T07:36:20;100044.06;;;6.99;100.00
28167;BME280;15455;53.376;-6.262;2023-04-23T07:39:06;100047.53;;;7.06;100.00
28167;BME280;15455;53.376;-6.262;2023-04-23T07:41:51;100051.84;;;7.15;100.00
28167;BME280;15455;53.376;-6.262;2023-04-23T07:44:37;100051.84;;;7.28;100.00
28167;BME280;15455;53.376;-6.262;2023-04-23T07:47:22;100047.53;;;7.21;100.00
28167;BME280;15455;53.376;-6.262;2023-04-23T07:50:08;100050.09;;;7.12;100.00
28167;BME280;15455;53.376;-6.262;2023-04-23T07:52:54;100049.25;;;7.04;100.00
28167;BME280;15455;53.376;-6.262;2023-04-23T07:55:40;100050.13;;;7.04;100.00
28167;BME280;15455;53.376;-6.262;2023-04-23T07:58:26;100068.31;;;7.17;100.00
28167;BME280;15455;53.376;-6.262;2023-04-23T08:01:11;100062.25;;;7.27;100.00
28167;BME280;15455;53.376;-6.262;2023-04-23T08:03:56;100062.22;;;7.32;100.00
28167;BME280;15455;53.376;-6.262;2023-04-23T08:06:45;100062.22;;;7.36;100.00
28167;BME280;15455;53.376;-6.262;2023-04-23T08:09:30;100051.84;;;7.39;100.00
28167;BME280;15455;53.376;-6.262;2023-04-23T08:12:16;100052.72;;;7.35;100.00
28167;BME280;15455;53.376;-6.262;2023-04-23T08:15:04;100050.13;;;7.38;100.00
28167;BME280;15455;53.376;-6.262;2023-04-23T08:17:55;100050.97;;;7.45;100.00
28167;BME280;15455;53.376;-6.262;2023-04-23T08:20:41;100048.38;;;7.54;100.00
28167;BME280;15455;53.376;-6.262;2023-04-23T08:23:26;100050.09;;;7.64;100.00
28167;BME280;15455;53.376;-6.262;2023-04-23T08:26:12;100038.81;;;7.73;100.00
28167;BME280;15455;53.376;-6.262;2023-04-23T08:28:57;100041.38;;;7.86;100.00
28167;BME280;15455;53.376;-6.262;2023-04-23T08:31:44;100037.03;;;7.94;100.00
28167;BME280;15455;53.376;-6.262;2023-04-23T08:34:30;100021.41;;;8.00;100.00
28167;BME280;15455;53.376;-6.262;2023-04-23T08:37:17;100036.91;;;8.20;100.00
28167;BME280;15455;53.376;-6.262;2023-04-23T08:40:15;100037.72;;;8.34;100.00
28167;BME280;15455;53.376;-6.262;2023-04-23T08:43:02;100026.41;;;8.46;100.00
28167;BME280;15455;53.376;-6.262;2023-04-23T08:45:51;100027.19;;;8.61;100.00
28167;BME280;15455;53.376;-6.262;2023-04-23T08:48:38;100028.03;;;8.69;100.00
28167;BME280;15455;53.376;-6.262;2023-04-23T08:51:25;100024.50;;;8.76;100.00
28167;BME280;15455;53.376;-6.262;2023-04-23T08:54:17;100031.44;;;8.79;100.00
28167;BME280;15455;53.376;-6.262;2023-04-23T08:57:03;100023.59;;;8.83;100.00
28167;BME280;15455;53.376;-6.262;2023-04-23T08:59:49;100027.09;;;8.84;100.00
28167;BME280;15455;53.376;-6.262;2023-04-23T09:02:38;100026.09;;;8.99;100.00
28167;BME280;15455;53.376;-6.262;2023-04-23T09:05:26;100020.75;;;9.16;100.00
28167;BME280;15455;53.376;-6.262;2023-04-23T09:08:12;100028.38;;;9.39;100.00
28167;BME280;15455;53.376;-6.262;2023-04-23T09:11:00;100033.38;;;9.61;100.00
28167;BME280;15455;53.376;-6.262;2023-04-23T09:13:46;100032.31;;;9.77;100.00
28167;BME280;15455;53.376;-6.262;2023-04-23T09:16:32;100030.47;;;9.88;100.00
28167;BME280;15455;53.376;-6.262;2023-04-23T09:19:17;100027.97;;;9.78;100.00
28167;BME280;15455;53.376;-6.262;2023-04-23T09:22:03;100034.13;;;9.69;100.00
28167;BME280;15455;53.376;-6.262;2023-04-23T09:24:49;100032.31;;;9.79;100.00
28167;BME280;15455;53.376;-6.262;2023-04-23T09:27:34;100028.59;;;10.00;100.00
28167;BME280;15455;53.376;-6.262;2023-04-23T09:30:21;100030.94;;;10.23;100.00
28167;BME280;15455;53.376;-6.262;2023-04-23T09:33:10;100038.59;;;10.35;100.00
28167;BME280;15455;53.376;-6.262;2023-04-23T09:35:56;100042.22;;;10.23;100.00
28167;BME280;15455;53.376;-6.262;2023-04-23T09:38:42;100048.19;;;10.33;100.00
28167;BME280;15455;53.376;-6.262;2023-04-23T09:41:28;100046.44;;;10.35;100.00
28167;BME280;15455;53.376;-6.262;2023-04-23T09:44:19;100050.19;;;10.11;100.00
28167;BME280;15455;53.376;-6.262;2023-04-23T09:47:07;100051.09;;;10.08;100.00
28167;BME280;15455;53.376;-6.262;2023-04-23T09:49:57;100051.78;;;10.24;100.00
28167;BME280;15455;53.376;-6.262;2023-04-23T09:52:43;100049.00;;;10.41;100.00
28167;BME280;15455;53.376;-6.262;2023-04-23T09:55:30;100059.47;;;10.35;100.00
28167;BME280;15455;53.376;-6.262;2023-04-23T09:58:23;100051.59;;;10.41;100.00
28167;BME280;15455;53.376;-6.262;2023-04-23T10:01:11;100052.19;;;10.62;100.00
28167;BME280;15455;53.376;-6.262;2023-04-23T10:03:59;100052.94;;;10.69;100.00
28167;BME280;15455;53.376;-6.262;2023-04-23T10:06:46;100058.50;;;10.44;100.00
28167;BME280;15455;53.376;-6.262;2023-04-23T10:09:51;100058.38;;;10.55;100.00
28167;BME280;15455;53.376;-6.262;2023-04-23T10:12:37;100059.50;;;10.32;100.00
28167;BME280;15455;53.376;-6.262;2023-04-23T10:15:38;100065.47;;;10.43;100.00
28167;BME280;15455;53.376;-6.262;2023-04-23T10:18:24;100070.16;;;10.12;100.00
28167;BME280;15455;53.376;-6.262;2023-04-23T10:21:11;100069.97;;;10.28;100.00
28167;BME280;15455;53.376;-6.262;2023-04-23T10:24:01;100061.81;;;10.55;100.00
28167;BME280;15455;53.376;-6.262;2023-04-23T10:26:47;100063.88;;;10.95;100.00
28167;BME280;15455;53.376;-6.262;2023-04-23T10:29:34;100067.91;;;11.17;100.00
28167;BME280;15455;53.376;-6.262;2023-04-23T10:32:21;100064.25;;;11.27;100.00
28167;BME280;15455;53.376;-6.262;2023-04-23T10:35:08;100073.63;;;11.40;100.00
28167;BME280;15455;53.376;-6.262;2023-04-23T10:37:54;100072.91;;;11.30;100.00
28167;BME280;15455;53.376;-6.262;2023-04-23T10:40:44;100075.06;;;11.58;100.00
28167;BME280;15455;53.376;-6.262;2023-04-23T10:43:30;100083.25;;;11.35;100.00
28167;BME280;15455;53.376;-6.262;2023-04-23T10:46:26;100086.88;;;11.28;100.00
28167;BME280;15455;53.376;-6.262;2023-04-23T10:49:13;100092.19;;;11.22;100.00
28167;BME280;15455;53.376;-6.262;2023-04-23T10:52:08;100088.84;;;11.12;100.00
28167;BME280;15455;53.376;-6.262;2023-04-23T10:54:57;100089.97;;;10.95;100.00
28167;BME280;15455;53.376;-6.262;2023-04-23T10:58:04;100099.19;;;10.59;100.00
28167;BME280;15455;53.376;-6.262;2023-04-23T11:00:50;100093.38;;;10.35;100.00
28167;BME280;15455;53.376;-6.262;2023-04-23T11:03:37;100095.06;;;10.41;100.00
28167;BME280;15455;53.376;-6.262;2023-04-23T11:09:37;100111.72;;;10.28;100.00
28167;BME280;15455;53.376;-6.262;2023-04-23T11:15:11;100118.69;;;10.27;100.00
28167;BME280;15455;53.376;-6.262;2023-04-23T11:17:57;100109.09;;;10.29;100.00
28167;BME280;15455;53.376;-6.262;2023-04-23T11:20:43;100116.88;;;10.35;100.00
28167;BME280;15455;53.376;-6.262;2023-04-23T11:23:29;100115.00;;;10.45;100.00
28167;BME280;15455;53.376;-6.262;2023-04-23T11:26:17;100121.94;;;10.48;100.00
28167;BME280;15455;53.376;-6.262;2023-04-23T11:29:02;100131.66;;;10.32;100.00
28167;BME280;15455;53.376;-6.262;2023-04-23T11:31:51;100124.06;;;10.12;100.00
28167;BME280;15455;53.376;-6.262;2023-04-23T11:34:42;100130.91;;;10.20;100.00
28167;BME280;15455;53.376;-6.262;2023-04-23T11:37:28;100130.00;;;10.26;100.00
28167;BME280;15455;53.376;-6.262;2023-04-23T11:40:16;100132.63;;;10.23;100.00
28167;BME280;15455;53.376;-6.262;2023-04-23T11:43:04;100129.22;;;10.16;100.00
28167;BME280;15455;53.376;-6.262;2023-04-23T11:45:50;100139.63;;;10.18;100.00
28167;BME280;15455;53.376;-6.262;2023-04-23T11:48:35;100142.06;;;10.36;100.00
28167;BME280;15455;53.376;-6.262;2023-04-23T11:51:25;100143.56;;;10.59;100.00
28167;BME280;15455;53.376;-6.262;2023-04-23T11:54:11;100138.09;;;10.76;100.00
28167;BME280;15455;53.376;-6.262;2023-04-23T11:56:58;100139.59;;;10.95;100.00
28167;BME280;15455;53.376;-6.262;2023-04-23T11:59:44;100139.28;;;11.17;100.00
28167;BME280;15455;53.376;-6.262;2023-04-23T12:02:29;100147.69;;;11.38;100.00
28167;BME280;15455;53.376;-6.262;2023-04-23T12:05:19;100136.25;;;11.43;100.00
28167;BME280;15455;53.376;-6.262;2023-04-23T12:08:17;100139.53;;;11.56;100.00
28167;BME280;15455;53.376;-6.262;2023-04-23T12:11:03;100133.25;;;11.68;100.00
28167;BME280;15455;53.376;-6.262;2023-04-23T12:13:50;100137.03;;;12.03;100.00
28167;BME280;15455;53.376;-6.262;2023-04-23T12:16:43;100138.31;;;12.27;100.00
28167;BME280;15455;53.376;-6.262;2023-04-23T12:19:30;100140.66;;;12.83;100.00
28167;BME280;15455;53.376;-6.262;2023-04-23T12:22:15;100133.84;;;13.15;100.00
28167;BME280;15455;53.376;-6.262;2023-04-23T12:25:04;100141.00;;;13.09;100.00
28167;BME280;15455;53.376;-6.262;2023-04-23T12:27:53;100139.50;;;12.97;100.00
28167;BME280;15455;53.376;-6.262;2023-04-23T12:30:43;100143.84;;;12.98;100.00
28167;BME280;15455;53.376;-6.262;2023-04-23T12:33:30;100145.03;;;12.84;100.00
28167;BME280;15455;53.376;-6.262;2023-04-23T12:36:15;100153.75;;;12.41;100.00
28167;BME280;15455;53.376;-6.262;2023-04-23T12:39:27;100145.25;;;12.30;100.00
28167;BME280;15455;53.376;-6.262;2023-04-23T12:42:16;100149.66;;;12.72;100.00
28167;BME280;15455;53.376;-6.262;2023-04-23T12:45:05;100150.16;;;12.89;100.00
28167;BME280;15455;53.376;-6.262;2023-04-23T12:47:52;100147.59;;;12.86;100.00
28167;BME280;15455;53.376;-6.262;2023-04-23T12:50:38;100150.81;;;12.58;100.00
28167;BME280;15455;53.376;-6.262;2023-04-23T12:53:23;100157.50;;;12.28;100.00
28167;BME280;15455;53.376;-6.262;2023-04-23T12:56:09;100156.66;;;12.26;100.00
28167;BME280;15455;53.376;-6.262;2023-04-23T12:58:55;100151.28;;;12.77;100.00
28167;BME280;15455;53.376;-6.262;2023-04-23T13:01:40;100149.34;;;13.64;100.00
28167;BME280;15455;53.376;-6.262;2023-04-23T13:04:27;100157.84;;;14.39;100.00
28167;BME280;15455;53.376;-6.262;2023-04-23T13:07:13;100151.19;;;15.19;100.00
28167;BME280;15455;53.376;-6.262;2023-04-23T13:09:58;100152.25;;;15.68;100.00
28167;BME280;15455;53.376;-6.262;2023-04-23T13:12:44;100151.22;;;15.72;100.00
28167;BME280;15455;53.376;-6.262;2023-04-23T13:15:29;100151.97;;;15.22;100.00
28167;BME280;15455;53.376;-6.262;2023-04-23T13:18:15;100166.25;;;14.52;100.00
28167;BME280;15455;53.376;-6.262;2023-04-23T13:21:01;100161.38;;;14.07;100.00
28167;BME280;15455;53.376;-6.262;2023-04-23T13:23:46;100155.94;;;13.44;100.00
28167;BME280;15455;53.376;-6.262;2023-04-23T13:26:32;100159.09;;;12.79;100.00
28167;BME280;15455;53.376;-6.262;2023-04-23T13:29:17;100172.06;;;12.41;100.00
28167;BME280;15455;53.376;-6.262;2023-04-23T13:32:03;100167.34;;;12.15;100.00
28167;BME280;15455;53.376;-6.262;2023-04-23T13:34:48;100165.06;;;11.96;100.00
28167;BME280;15455;53.376;-6.262;2023-04-23T13:37:34;100163.44;;;11.88;100.00
28167;BME280;15455;53.376;-6.262;2023-04-23T13:40:19;100162.06;;;12.16;100.00
28167;BME280;15455;53.376;-6.262;2023-04-23T13:43:05;100165.97;;;12.84;100.00
28167;BME280;15455;53.376;-6.262;2023-04-23T13:45:52;100167.13;;;13.51;100.00
28167;BME280;15455;53.376;-6.262;2023-04-23T13:48:38;100166.13;;;13.93;100.00
28167;BME280;15455;53.376;-6.262;2023-04-23T13:51:23;100162.25;;;14.39;100.00
28167;BME280;15455;53.376;-6.262;2023-04-23T13:54:19;100169.25;;;14.71;100.00
28167;BME280;15455;53.376;-6.262;2023-04-23T13:57:05;100165.84;;;14.98;100.00
28167;BME280;15455;53.376;-6.262;2023-04-23T13:59:50;100167.69;;;15.24;100.00
28167;BME280;15455;53.376;-6.262;2023-04-23T14:02:36;100171.13;;;15.54;100.00
28167;BME280;15455;53.376;-6.262;2023-04-23T14:05:22;100166.13;;;15.73;100.00
28167;BME280;15455;53.376;-6.262;2023-04-23T14:08:07;100180.16;;;15.45;100.00
28167;BME280;15455;53.376;-6.262;2023-04-23T14:10:53;100185.50;;;15.14;100.00
28167;BME280;15455;53.376;-6.262;2023-04-23T14:13:38;100182.09;;;15.10;100.00
28167;BME280;15455;53.376;-6.262;2023-04-23T14:16:24;100180.94;;;14.91;100.00
28167;BME280;15455;53.376;-6.262;2023-04-23T14:19:09;100194.47;;;14.77;100.00
28167;BME280;15455;53.376;-6.262;2023-04-23T14:21:54;100193.91;;;14.66;100.00
28167;BME280;15455;53.376;-6.262;2023-04-23T14:24:45;100187.00;;;14.30;100.00
28167;BME280;15455;53.376;-6.262;2023-04-23T14:27:39;100191.72;;;14.17;100.00